sensor_id;sensor_type;location;lat;lon;timestamp;pressure;altitude;pressure_sealevel;temperature;humidity
59825;BME280;45703;50.898;6.054;2023-04-24T00:01:45;98779.59;;;10.16;77.20
59825;BME280;45703;50.898;6.054;2023-04-24T00:04:10;98773.16;;;10.12;77.55
59825;BME280;45703;50.898;6.054;2023-04-24T00:06:37;98781.13;;;10.07;77.93
59825;BME280;45703;50.898;6.054;2023-04-24T00:09:03;98785.84;;;10.00;77.86
59825;BME280;45703;50.898;6.054;2023-04-24T00:11:29;98793.28;;;9.98;78.09
59825;BME280;45703;50.898;6.054;2023-04-24T00:13:56;98786.81;;;9.94;78.19
59825;BME280;45703;50.898;6.054;2023-04-24T00:16:22;98793.78;;;9.95;78.50
59825;BME280;45703;50.898;6.054;2023-04-24T00:18:47;98786.75;;;9.89;78.26
59825;BME280;45703;50.898;6.054;2023-04-24T00:21:17;98800.41;;;9.93;78.95
59825;BME280;45703;50.898;6.054;2023-04-24T00:23:43;98808.63;;;9.91;78.88
59825;BME280;45703;50.898;6.054;2023-04-24T00:26:09;98808.13;;;9.94;79.18
59825;BME280;45703;50.898;6.054;2023-04-24T00:28:35;98803.31;;;9.91;79.39
59825;BME280;45703;50.898;6.054;2023-04-24T00:31:01;98808.59;;;9.86;79.46
59825;BME280;45703;50.898;6.054;2023-04-24T00:33:26;98801.91;;;9.84;79.53
59825;BME280;45703;50.898;6.054;2023-04-24T00:35:52;98805.88;;;9.81;79.77
59825;BME280;45703;50.898;6.054;2023-04-24T00:38:18;98804.81;;;9.82;79.96
59825;BME280;45703;50.898;6.054;2023-04-24T00:40:43;98807.50;;;9.82;80.09
59825;BME280;45703;50.898;6.054;2023-04-24T00:43:09;98804.53;;;9.79;79.79
59825;BME280;45703;50.898;6.054;2023-04-24T00:45:35;98807.19;;;9.79;80.11
59825;BME280;45703;50.898;6.054;2023-04-24T00:48:01;98807.19;;;9.79;80.17
59825;BME280;45703;50.898;6.054;2023-04-24T00:50:28;98797.09;;;9.81;80.40
59825;BME280;45703;50.898;6.054;2023-04-24T00:52:53;98793.59;;;9.80;80.29
59825;BME280;45703;50.898;6.054;2023-04-24T00:55:19;98791.44;;;9.77;80.50
59825;BME280;45703;50.898;6.054;2023-04-24T00:57:46;98795.66;;;9.73;81.14
59825;BME280;45703;50.898;6.054;2023-04-24T01:00:13;98785.75;;;9.69;80.76
59825;BME280;45703;50.898;6.054;2023-04-24T01:02:40;98788.19;;;9.70;80.85
59825;BME280;45703;50.898;6.054;2023-04-24T01:05:09;98789.78;;;9.71;80.83
59825;BME280;45703;50.898;6.054;2023-04-24T01:07:34;98789.78;;;9.71;80.74
59825;BME280;45703;50.898;6.054;2023-04-24T01:10:01;98792.28;;;9.78;81.07
59825;BME280;45703;50.898;6.054;2023-04-24T01:12:26;98789.56;;;9.73;81.55
59825;BME280;45703;50.898;6.054;2023-04-24T01:14:52;98779.72;;;9.78;81.29
59825;BME280;45703;50.898;6.054;2023-04-24T01:17:17;98776.50;;;9.76;80.82
59825;BME280;45703;50.898;6.054;2023-04-24T01:19:42;98791.44;;;9.77;81.26
59825;BME280;45703;50.898;6.054;2023-04-24T01:22:13;98782.91;;;9.75;81.46
59825;BME280;45703;50.898;6.054;2023-04-24T01:24:40;98784.81;;;9.80;81.37
59825;BME280;45703;50.898;6.054;2023-04-24T01:27:06;98786.94;;;9.78;81.28
59825;BME280;45703;50.898;6.054;2023-04-24T01:29:32;98779.19;;;9.76;81.53
59825;BME280;45703;50.898;6.054;2023-04-24T01:31:58;98781.78;;;9.71;81.55
59825;BME280;45703;50.898;6.054;2023-04-24T01:34:23;98797.84;;;9.76;81.90
59825;BME280;45703;50.898;6.054;2023-04-24T01:36:49;98785.63;;;9.80;81.51
59825;BME280;45703;50.898;6.054;2023-04-24T01:39:15;98783.72;;;9.76;81.66
59825;BME280;45703;50.898;6.054;2023-04-24T01:41:42;98796.00;;;9.77;81.75
59825;BME280;45703;50.898;6.054;2023-04-24T01:44:07;98785.00;;;9.73;81.77
59825;BME280;45703;50.898;6.054;2023-04-24T01:46:33;98790.94;;;9.80;81.41
59825;BME280;45703;50.898;6.054;2023-04-24T01:49:00;98778.63;;;9.74;81.34
59825;BME280;45703;50.898;6.054;2023-04-24T01:51:25;98781.59;;;9.78;81.19
59825;BME280;45703;50.898;6.054;2023-04-24T01:53:52;98791.50;;;9.82;81.18
59825;BME280;45703;50.898;6.054;2023-04-24T01:56:21;98784.00;;;9.79;81.55
59825;BME280;45703;50.898;6.054;2023-04-24T01:58:48;98767.47;;;9.77;81.32
59825;BME280;45703;50.898;6.054;2023-04-24T02:01:18;98781.34;;;9.79;81.53
59825;BME280;45703;50.898;6.054;2023-04-24T02:03:44;98778.63;;;9.74;81.34
59825;BME280;45703;50.898;6.054;2023-04-24T02:06:09;98767.22;;;9.79;81.14
59825;BME280;45703;50.898;6.054;2023-04-24T02:08:35;98775.78;;;9.81;81.39
59825;BME280;45703;50.898;6.054;2023-04-24T02:11:00;98776.56;;;9.81;81.05
59825;BME280;45703;50.898;6.054;2023-04-24T02:13:27;98774.94;;;9.80;81.56
59825;BME280;45703;50.898;6.054;2023-04-24T02:15:52;98785.63;;;9.80;81.77
59825;BME280;45703;50.898;6.054;2023-04-24T02:18:18;98787.22;;;9.81;81.47
59825;BME280;45703;50.898;6.054;2023-04-24T02:20:43;98785.34;;;9.77;81.38
59825;BME280;45703;50.898;6.054;2023-04-24T02:23:08;98783.44;;;9.77;81.83
59825;BME280;45703;50.898;6.054;2023-04-24T02:25:34;98777.00;;;9.73;81.76
59825;BME280;45703;50.898;6.054;2023-04-24T02:27:59;98772.44;;;9.69;81.88
59825;BME280;45703;50.898;6.054;2023-04-24T02:30:25;98775.97;;;9.74;82.00
59825;BME280;45703;50.898;6.054;2023-04-24T02:32:51;98779.72;;;9.78;81.68
59825;BME280;45703;50.898;6.054;2023-04-24T02:35:16;98773.28;;;9.74;81.98
59825;BME280;45703;50.898;6.054;2023-04-24T02:37:42;98771.69;;;9.73;81.96
59825;BME280;45703;50.898;6.054;2023-04-24T02:40:08;98773.28;;;9.74;82.10
59825;BME280;45703;50.898;6.054;2023-04-24T02:42:34;98779.94;;;9.72;82.36
59825;BME280;45703;50.898;6.054;2023-04-24T02:45:00;98764.75;;;9.72;81.99
59825;BME280;45703;50.898;6.054;2023-04-24T02:47:25;98770.59;;;9.69;82.62
59825;BME280;45703;50.898;6.054;2023-04-24T02:49:50;98768.09;;;9.63;82.65
59825;BME280;45703;50.898;6.054;2023-04-24T02:52:16;98772.13;;;9.65;82.74
59825;BME280;45703;50.898;6.054;2023-04-24T02:54:42;98778.53;;;9.64;82.56
59825;BME280;45703;50.898;6.054;2023-04-24T02:57:08;98786.88;;;9.73;82.21
59825;BME280;45703;50.898;6.054;2023-04-24T02:59:33;98786.81;;;9.68;82.67
59825;BME280;45703;50.898;6.054;2023-04-24T03:01:59;98788.13;;;9.65;82.57
59825;BME280;45703;50.898;6.054;2023-04-24T03:04:24;98787.88;;;9.67;82.46
59825;BME280;45703;50.898;6.054;2023-04-24T03:06:50;98777.75;;;9.69;83.73
59825;BME280;45703;50.898;6.054;2023-04-24T03:09:18;98785.97;;;9.62;83.99
59825;BME280;45703;50.898;6.054;2023-04-24T03:11:43;98792.34;;;9.61;84.74
59825;BME280;45703;50.898;6.054;2023-04-24T03:14:09;98777.41;;;9.60;84.53
59825;BME280;45703;50.898;6.054;2023-04-24T03:16:34;98781.59;;;9.51;84.71
59825;BME280;45703;50.898;6.054;2023-04-24T03:19:00;98773.53;;;9.46;85.50
59825;BME280;45703;50.898;6.054;2023-04-24T03:21:25;98781.03;;;9.49;85.27
59825;BME280;45703;50.898;6.054;2023-04-24T03:23:51;98778.22;;;9.39;84.73
59825;BME280;45703;50.898;6.054;2023-04-24T03:26:17;98779.03;;;9.40;85.44
59825;BME280;45703;50.898;6.054;2023-04-24T03:28:45;98784.09;;;9.41;84.89
59825;BME280;45703;50.898;6.054;2023-04-24T03:31:11;98787.91;;;9.45;84.70
59825;BME280;45703;50.898;6.054;2023-04-24T03:33:36;98782.59;;;9.45;84.59
59825;BME280;45703;50.898;6.054;2023-04-24T03:36:01;98778.03;;;9.46;84.93
59825;BME280;45703;50.898;6.054;2023-04-24T03:38:27;98779.84;;;9.40;84.61
59825;BME280;45703;50.898;6.054;2023-04-24T03:40:52;98786.78;;;9.41;84.64
59825;BME280;45703;50.898;6.054;2023-04-24T03:43:18;98775.28;;;9.36;85.14
59825;BME280;45703;50.898;6.054;2023-04-24T03:45:43;98780.34;;;9.37;85.01
59825;BME280;45703;50.898;6.054;2023-04-24T03:48:08;98776.31;;;9.35;85.51
59825;BME280;45703;50.898;6.054;2023-04-24T03:50:34;98782.94;;;9.32;85.90
59825;BME280;45703;50.898;6.054;2023-04-24T03:52:59;98781.31;;;9.31;86.62
59825;BME280;45703;50.898;6.054;2023-04-24T03:55:25;98779.09;;;9.23;86.73
59825;BME280;45703;50.898;6.054;2023-04-24T03:57:50;98791.69;;;9.28;85.98
59825;BME280;45703;50.898;6.054;2023-04-24T04:00:16;98793.47;;;9.22;86.48
59825;BME280;45703;50.898;6.054;2023-04-24T04:02:41;98793.47;;;9.22;86.65
59825;BME280;45703;50.898;6.054;2023-04-24T04:05:07;98798.31;;;9.25;86.73
59825;BME280;45703;50.898;6.054;2023-04-24T04:07:33;98794.53;;;9.21;87.02
59825;BME280;45703;50.898;6.054;2023-04-24T04:09:58;98800.56;;;9.17;87.17
59825;BME280;45703;50.898;6.054;2023-04-24T04:12:24;98787.53;;;9.15;87.75
59825;BME280;45703;50.898;6.054;2023-04-24T04:14:49;98810.44;;;9.16;87.67
59825;BME280;45703;50.898;6.054;2023-04-24T04:17:15;98801.88;;;9.14;88.26
59825;BME280;45703;50.898;6.054;2023-04-24T04:19:40;98803.50;;;9.15;87.83
59825;BME280;45703;50.898;6.054;2023-04-24T04:22:06;98802.38;;;9.11;87.84
59825;BME280;45703;50.898;6.054;2023-04-24T04:24:33;98813.31;;;9.15;87.98
59825;BME280;45703;50.898;6.054;2023-04-24T04:26:59;98809.81;;;9.09;88.35
59825;BME280;45703;50.898;6.054;2023-04-24T04:29:25;98814.63;;;9.12;88.26
59825;BME280;45703;50.898;6.054;2023-04-24T04:31:51;98810.03;;;9.08;88.27
59825;BME280;45703;50.898;6.054;2023-04-24T04:34:16;98813.75;;;9.07;88.29
59825;BME280;45703;50.898;6.054;2023-04-24T04:36:42;98807.88;;;9.05;88.58
59825;BME280;45703;50.898;6.054;2023-04-24T04:39:08;98810.94;;;9.13;89.23
59825;BME280;45703;50.898;6.054;2023-04-24T04:41:33;98802.38;;;9.11;88.87
59825;BME280;45703;50.898;6.054;2023-04-24T04:44:00;98808.19;;;9.08;89.10
59825;BME280;45703;50.898;6.054;2023-04-24T04:46:26;98817.78;;;9.09;89.47
59825;BME280;45703;50.898;6.054;2023-04-24T04:48:52;98827.38;;;9.10;89.55
59825;BME280;45703;50.898;6.054;2023-04-24T04:51:18;98816.41;;;9.07;89.93
59825;BME280;45703;50.898;6.054;2023-04-24T04:53:43;98817.16;;;9.02;89.98
59825;BME280;45703;50.898;6.054;2023-04-24T04:56:09;98834.25;;;9.06;89.86
59825;BME280;45703;50.898;6.054;2023-04-24T04:58:34;98832.88;;;9.04;89.58
59825;BME280;45703;50.898;6.054;2023-04-24T05:01:00;98829.66;;;9.02;89.63
59825;BME280;45703;50.898;6.054;2023-04-24T05:03:25;98835.31;;;9.05;90.06
59825;BME280;45703;50.898;6.054;2023-04-24T05:05:50;98836.53;;;8.98;90.38
59825;BME280;45703;50.898;6.054;2023-04-24T05:08:16;98815.66;;;8.90;90.59
59825;BME280;45703;50.898;6.054;2023-04-24T05:10:41;98834.69;;;8.98;90.99
59825;BME280;45703;50.898;6.054;2023-04-24T05:13:07;98836.78;;;8.96;92.44
59825;BME280;45703;50.898;6.054;2023-04-24T05:15:32;98837.00;;;8.95;91.59
59825;BME280;45703;50.898;6.054;2023-04-24T05:17:57;98837.28;;;8.93;91.06
59825;BME280;45703;50.898;6.054;2023-04-24T05:20:23;98846.94;;;8.99;91.61
59825;BME280;45703;50.898;6.054;2023-04-24T05:22:48;98842.25;;;8.90;91.86
59825;BME280;45703;50.898;6.054;2023-04-24T05:25:16;98849.19;;;8.91;92.35
59825;BME280;45703;50.898;6.054;2023-04-24T05:27:42;98831.78;;;8.83;92.02
59825;BME280;45703;50.898;6.054;2023-04-24T05:30:08;98845.00;;;8.78;92.31
59825;BME280;45703;50.898;6.054;2023-04-24T05:32:34;98857.25;;;8.79;92.37
59825;BME280;45703;50.898;6.054;2023-04-24T05:35:00;98859.44;;;8.82;93.11
59825;BME280;45703;50.898;6.054;2023-04-24T05:37:25;98864.69;;;8.77;93.22
59825;BME280;45703;50.898;6.054;2023-04-24T05:39:51;98863.56;;;8.73;93.55
59825;BME280;45703;50.898;6.054;2023-04-24T05:42:16;98881.13;;;8.74;94.25
59825;BME280;45703;50.898;6.054;2023-04-24T05:44:42;98876.78;;;8.68;94.28
59825;BME280;45703;50.898;6.054;2023-04-24T05:47:07;98867.28;;;8.72;94.26
59825;BME280;45703;50.898;6.054;2023-04-24T05:49:32;98888.56;;;8.72;94.78
59825;BME280;45703;50.898;6.054;2023-04-24T05:51:58;98895.97;;;8.70;94.81
59825;BME280;45703;50.898;6.054;2023-04-24T05:54:23;98886.38;;;8.69;95.10
59825;BME280;45703;50.898;6.054;2023-04-24T05:56:49;98890.09;;;8.68;95.24
59825;BME280;45703;50.898;6.054;2023-04-24T05:59:15;98888.97;;;8.64;95.47
59825;BME280;45703;50.898;6.054;2023-04-24T06:01:41;98909.28;;;8.70;95.65
59825;BME280;45703;50.898;6.054;2023-04-24T06:04:06;98911.94;;;8.70;96.02
59825;BME280;45703;50.898;6.054;2023-04-24T06:06:32;98911.84;;;8.65;96.23
59825;BME280;45703;50.898;6.054;2023-04-24T06:08:57;98925.00;;;8.72;96.13
59825;BME280;45703;50.898;6.054;2023-04-24T06:11:24;98920.16;;;8.69;96.37
59825;BME280;45703;50.898;6.054;2023-04-24T06:13:50;98912.91;;;8.64;96.10
59825;BME280;45703;50.898;6.054;2023-04-24T06:16:15;98918.56;;;8.68;98.55
59825;BME280;45703;50.898;6.054;2023-04-24T06:18:41;98924.03;;;8.61;98.22
59825;BME280;45703;50.898;6.054;2023-04-24T06:21:06;98930.63;;;8.59;98.85
59825;BME280;45703;50.898;6.054;2023-04-24T06:23:31;98926.13;;;8.59;99.18
59825;BME280;45703;50.898;6.054;2023-04-24T06:25:58;98933.53;;;8.57;99.63
59825;BME280;45703;50.898;6.054;2023-04-24T06:28:23;98940.69;;;8.57;99.41
59825;BME280;45703;50.898;6.054;2023-04-24T06:30:49;98937.72;;;8.54;99.55
59825;BME280;45703;50.898;6.054;2023-04-24T06:33:14;98961.47;;;8.60;98.94
59825;BME280;45703;50.898;6.054;2023-04-24T06:35:39;98959.56;;;8.56;99.14
59825;BME280;45703;50.898;6.054;2023-04-24T06:38:05;98965.34;;;8.53;98.53
59825;BME280;45703;50.898;6.054;2023-04-24T06:40:30;98968.03;;;8.53;99.06
59825;BME280;45703;50.898;6.054;2023-04-24T06:42:57;98958.81;;;8.44;98.66
59825;BME280;45703;50.898;6.054;2023-04-24T06:45:23;98956.50;;;8.36;98.95
59825;BME280;45703;50.898;6.054;2023-04-24T06:47:48;98993.72;;;8.36;98.75
59825;BME280;45703;50.898;6.054;2023-04-24T06:50:14;98986.13;;;8.28;98.91
59825;BME280;45703;50.898;6.054;2023-04-24T06:52:40;98988.22;;;8.26;100.00
59825;BME280;45703;50.898;6.054;2023-04-24T06:55:06;99004.66;;;8.23;99.55
59825;BME280;45703;50.898;6.054;2023-04-24T06:57:32;98997.03;;;8.15;100.00
59825;BME280;45703;50.898;6.054;2023-04-24T06:59:57;99006.41;;;8.17;100.00
59825;BME280;45703;50.898;6.054;2023-04-24T07:02:22;99010.53;;;8.13;99.71
59825;BME280;45703;50.898;6.054;2023-04-24T07:04:48;98998.44;;;8.06;99.92
59825;BME280;45703;50.898;6.054;2023-04-24T07:07:13;99002.59;;;8.02;100.00
59825;BME280;45703;50.898;6.054;2023-04-24T07:09:40;99007.56;;;7.98;100.00
59825;BME280;45703;50.898;6.054;2023-04-24T07:12:09;99017.31;;;7.93;100.00
59825;BME280;45703;50.898;6.054;2023-04-24T07:14:38;99012.69;;;7.88;100.00
59825;BME280;45703;50.898;6.054;2023-04-24T07:17:04;99015.09;;;7.90;100.00
59825;BME280;45703;50.898;6.054;2023-04-24T07:19:30;99035.91;;;7.93;100.00
59825;BME280;45703;50.898;6.054;2023-04-24T07:21:56;99026.31;;;7.92;100.00
59825;BME280;45703;50.898;6.054;2023-04-24T07:24:24;99034.28;;;7.92;100.00
59825;BME280;45703;50.898;6.054;2023-04-24T07:26:51;99044.66;;;7.93;100.00
59825;BME280;45703;50.898;6.054;2023-04-24T07:29:17;99047.44;;;7.87;100.00
59825;BME280;45703;50.898;6.054;2023-04-24T07:31:42;99051.38;;;7.84;100.00
59825;BME280;45703;50.898;6.054;2023-04-24T07:34:08;99053.22;;;7.84;100.00
59825;BME280;45703;50.898;6.054;2023-04-24T07:36:33;99055.66;;;7.85;100.00
59825;BME280;45703;50.898;6.054;2023-04-24T07:38:58;99085.09;;;7.84;100.00
59825;BME280;45703;50.898;6.054;2023-04-24T07:41:24;99093.06;;;7.84;100.00
59825;BME280;45703;50.898;6.054;2023-04-24T07:43:50;99082.44;;;7.84;100.00
59825;BME280;45703;50.898;6.054;2023-04-24T07:46:16;99083.38;;;7.78;100.00
59825;BME280;45703;50.898;6.054;2023-04-24T07:48:41;99078.41;;;7.70;100.00
59825;BME280;45703;50.898;6.054;2023-04-24T07:51:07;99105.78;;;7.70;100.00
59825;BME280;45703;50.898;6.054;2023-04-24T07:53:35;99109.94;;;7.66;100.00
59825;BME280;45703;50.898;6.054;2023-04-24T07:56:00;99110.19;;;7.76;100.00
59825;BME280;45703;50.898;6.054;2023-04-24T07:58:26;99121.59;;;7.77;100.00
59825;BME280;45703;50.898;6.054;2023-04-24T08:00:51;99116.75;;;7.74;100.00
59825;BME280;45703;50.898;6.054;2023-04-24T08:03:16;99122.97;;;7.68;100.00
59825;BME280;45703;50.898;6.054;2023-04-24T08:05:44;99135.59;;;7.72;100.00
59825;BME280;45703;50.898;6.054;2023-04-24T08:08:09;99132.69;;;7.74;100.00
59825;BME280;45703;50.898;6.054;2023-04-24T08:10:35;99137.53;;;7.77;100.00
59825;BME280;45703;50.898;6.054;2023-04-24T08:13:00;99146.22;;;7.72;100.00
59825;BME280;45703;50.898;6.054;2023-04-24T08:15:27;99142.72;;;7.72;100.00
59825;BME280;45703;50.898;6.054;2023-04-24T08:17:52;99154.97;;;7.73;100.00
59825;BME280;45703;50.898;6.054;2023-04-24T08:20:18;99162.84;;;7.79;100.00
59825;BME280;45703;50.898;6.054;2023-04-24T08:22:43;99156.94;;;7.77;100.00
59825;BME280;45703;50.898;6.054;2023-04-24T08:25:10;99173.81;;;7.83;100.00
59825;BME280;45703;50.898;6.054;2023-04-24T08:27:36;99169.78;;;7.80;100.00
59825;BME280;45703;50.898;6.054;2023-04-24T08:30:03;99178.53;;;7.81;100.00
59825;BME280;45703;50.898;6.054;2023-04-24T08:32:29;99183.72;;;7.76;100.00
59825;BME280;45703;50.898;6.054;2023-04-24T08:34:58;99187.34;;;7.81;100.00
59825;BME280;45703;50.898;6.054;2023-04-24T08:37:24;99192.78;;;7.86;100.00
59825;BME280;45703;50.898;6.054;2023-04-24T08:39:50;99200.38;;;7.83;100.00
59825;BME280;45703;50.898;6.054;2023-04-24T08:42:17;99200.94;;;7.85;100.00
59825;BME280;45703;50.898;6.054;2023-04-24T08:44:44;99205.22;;;7.86;100.00
59825;BME280;45703;50.898;6.054;2023-04-24T08:47:11;99210.44;;;7.92;100.00
59825;BME280;45703;50.898;6.054;2023-04-24T08:49:37;99215.97;;;7.91;100.00
59825;BME280;45703;50.898;6.054;2023-04-24T08:52:03;99214.25;;;7.85;100.00
59825;BME280;45703;50.898;6.054;2023-04-24T08:54:29;99221.06;;;7.92;100.00
59825;BME280;45703;50.898;6.054;2023-04-24T08:56:58;99206.84;;;7.87;100.00
59825;BME280;45703;50.898;6.054;2023-04-24T08:59:26;99225.25;;;8.00;100.00
59825;BME280;45703;50.898;6.054;2023-04-24T09:01:51;99224.69;;;7.98;100.00
59825;BME280;45703;50.898;6.054;2023-04-24T09:04:19;99232.66;;;7.98;100.00
59825;BME280;45703;50.898;6.054;2023-04-24T09:06:50;99237.38;;;7.96;100.00
59825;BME280;45703;50.898;6.054;2023-04-24T09:09:16;99250.22;;;7.99;100.00
59825;BME280;45703;50.898;6.054;2023-04-24T09:11:43;99248.47;;;7.93;100.00
59825;BME280;45703;50.898;6.054;2023-04-24T09:14:09;99253.66;;;7.99;100.00
59825;BME280;45703;50.898;6.054;2023-04-24T09:16:35;99255.06;;;8.02;100.00
59825;BME280;45703;50.898;6.054;2023-04-24T09:19:01;99258.91;;;8.06;100.00
59825;BME280;45703;50.898;6.054;2023-04-24T09:21:31;99248.97;;;8.13;100.00
59825;BME280;45703;50.898;6.054;2023-04-24T09:23:58;99256.88;;;8.19;100.00
59825;BME280;45703;50.898;6.054;2023-04-24T09:26:25;99259.28;;;8.21;100.00
59825;BME280;45703;50.898;6.054;2023-04-24T09:28:50;99279.28;;;8.35;100.00
59825;BME280;45703;50.898;6.054;2023-04-24T09:31:18;99272.00;;;8.42;100.00
59825;BME280;45703;50.898;6.054;2023-04-24T09:34:03;99275.25;;;8.55;100.00
59825;BME280;45703;50.898;6.054;2023-04-24T09:36:34;99282.78;;;8.69;100.00
59825;BME280;45703;50.898;6.054;2023-04-24T09:39:03;99285.56;;;8.86;100.00
59825;BME280;45703;50.898;6.054;2023-04-24T09:41:32;99286.13;;;8.99;100.00
59825;BME280;45703;50.898;6.054;2023-04-24T09:44:11;99286.34;;;9.09;100.00
59825;BME280;45703;50.898;6.054;2023-04-24T09:46:37;99291.38;;;9.22;100.00
59825;BME280;45703;50.898;6.054;2023-04-24T09:49:12;99292.72;;;9.36;100.00
59825;BME280;45703;50.898;6.054;2023-04-24T09:51:38;99293.53;;;9.48;100.00
59825;BME280;45703;50.898;6.054;2023-04-24T09:54:05;99290.00;;;9.59;100.00
59825;BME280;45703;50.898;6.054;2023-04-24T09:56:42;99300.47;;;9.77;100.00
59825;BME280;45703;50.898;6.054;2023-04-24T09:59:07;99285.06;;;9.79;100.00
59825;BME280;45703;50.898;6.054;2023-04-24T10:01:34;99296.84;;;9.83;100.00
59825;BME280;45703;50.898;6.054;2023-04-24T10:03:59;99295.22;;;9.82;100.00
59825;BME280;45703;50.898;6.054;2023-04-24T10:06:33;99300.81;;;9.81;100.00
59825;BME280;45703;50.898;6.054;2023-04-24T10:09:00;99299.59;;;9.72;99.22
59825;BME280;45703;50.898;6.054;2023-04-24T10:11:26;99299.63;;;9.60;98.62
59825;BME280;45703;50.898;6.054;2023-04-24T10:13:52;99315.41;;;9.50;98.43
59825;BME280;45703;50.898;6.054;2023-04-24T10:16:19;99310.09;;;9.50;98.69
59825;BME280;45703;50.898;6.054;2023-04-24T10:18:48;99308.69;;;9.48;99.26
59825;BME280;45703;50.898;6.054;2023-04-24T10:21:14;99327.69;;;9.51;98.00
59825;BME280;45703;50.898;6.054;2023-04-24T10:23:41;99326.06;;;9.50;97.02
59825;BME280;45703;50.898;6.054;2023-04-24T10:26:09;99318.75;;;9.57;97.42
59825;BME280;45703;50.898;6.054;2023-04-24T10:28:36;99318.13;;;9.67;94.64
59825;BME280;45703;50.898;6.054;2023-04-24T10:31:01;99329.03;;;9.65;95.66
59825;BME280;45703;50.898;6.054;2023-04-24T10:33:29;99337.59;;;9.67;97.72
59825;BME280;45703;50.898;6.054;2023-04-24T10:35:56;99345.13;;;9.70;96.71
59825;BME280;45703;50.898;6.054;2023-04-24T10:38:24;99353.22;;;9.75;98.01
59825;BME280;45703;50.898;6.054;2023-04-24T10:40:50;99352.97;;;9.77;98.48
59825;BME280;45703;50.898;6.054;2023-04-24T10:43:17;99355.25;;;9.85;96.25
59825;BME280;45703;50.898;6.054;2023-04-24T10:46:04;99342.94;;;9.95;96.17
59825;BME280;45703;50.898;6.054;2023-04-24T10:48:30;99352.78;;;10.06;97.97
59825;BME280;45703;50.898;6.054;2023-04-24T10:50:55;99352.38;;;10.14;96.46
59825;BME280;45703;50.898;6.054;2023-04-24T10:53:27;99344.94;;;10.16;96.08
59825;BME280;45703;50.898;6.054;2023-04-24T10:55:57;99344.50;;;10.35;95.64
59825;BME280;45703;50.898;6.054;2023-04-24T10:58:26;99349.69;;;10.58;96.26
59825;BME280;45703;50.898;6.054;2023-04-24T11:01:00;99345.97;;;10.76;95.34
59825;BME280;45703;50.898;6.054;2023-04-24T11:03:30;99351.59;;;10.96;93.73
59825;BME280;45703;50.898;6.054;2023-04-24T11:08:24;99356.47;;;10.99;92.74
59825;BME280;45703;50.898;6.054;2023-04-24T11:11:09;99358.88;;;11.00;91.76
59825;BME280;45703;50.898;6.054;2023-04-24T11:16:30;99355.16;;;10.85;90.12
59825;BME280;45703;50.898;6.054;2023-04-24T11:21:44;99377.00;;;10.65;89.34
59825;BME280;45703;50.898;6.054;2023-04-24T11:26:53;99385.75;;;10.61;87.94
59825;BME280;45703;50.898;6.054;2023-04-24T11:29:20;99387.19;;;10.68;86.64
59825;BME280;45703;50.898;6.054;2023-04-24T11:31:46;99374.75;;;10.74;83.01
59825;BME280;45703;50.898;6.054;2023-04-24T11:34:17;99398.72;;;10.85;82.02
59825;BME280;45703;50.898;6.054;2023-04-24T11:36:46;99393.03;;;10.98;77.84
59825;BME280;45703;50.898;6.054;2023-04-24T11:39:13;99385.59;;;11.00;78.96
59825;BME280;45703;50.898;6.054;2023-04-24T11:41:39;99402.59;;;11.11;80.09
59825;BME280;45703;50.898;6.054;2023-04-24T11:44:07;99416.00;;;11.16;78.74
59825;BME280;45703;50.898;6.054;2023-04-24T11:46:33;99408.69;;;11.28;79.62
59825;BME280;45703;50.898;6.054;2023-04-24T11:48:59;99408.03;;;11.37;79.68
59825;BME280;45703;50.898;6.054;2023-04-24T11:51:26;99411.78;;;11.36;78.06
59825;BME280;45703;50.898;6.054;2023-04-24T11:53:55;99409.09;;;11.36;79.10
59825;BME280;45703;50.898;6.054;2023-04-24T11:56:24;99410.19;;;11.19;77.96
59825;BME280;45703;50.898;6.054;2023-04-24T11:58:52;99406.88;;;11.12;77.75
59825;BME280;45703;50.898;6.054;2023-04-24T12:01:19;99427.03;;;11.03;78.45
59825;BME280;45703;50.898;6.054;2023-04-24T12:03:50;99418.84;;;10.93;79.24
59825;BME280;45703;50.898;6.054;2023-04-24T12:06:24;99419.09;;;10.91;79.23
59825;BME280;45703;50.898;6.054;2023-04-24T12:08:52;99433.44;;;11.02;79.88
59825;BME280;45703;50.898;6.054;2023-04-24T12:11:20;99431.88;;;11.06;78.59
59825;BME280;45703;50.898;6.054;2023-04-24T12:13:45;99423.13;;;11.10;79.23
59825;BME280;45703;50.898;6.054;2023-04-24T12:16:11;99433.00;;;11.10;80.16
59825;BME280;45703;50.898;6.054;2023-04-24T12:18:42;99434.94;;;11.14;79.95
59825;BME280;45703;50.898;6.054;2023-04-24T12:21:19;99458.66;;;11.11;79.22
59825;BME280;45703;50.898;6.054;2023-04-24T12:23:44;99440.69;;;11.06;79.35
59825;BME280;45703;50.898;6.054;2023-04-24T12:26:17;99443.94;;;11.25;80.00
59825;BME280;45703;50.898;6.054;2023-04-24T12:28:47;99442.53;;;11.39;80.50
59825;BME280;45703;50.898;6.054;2023-04-24T12:31:17;99437.09;;;11.50;80.38
59825;BME280;45703;50.898;6.054;2023-04-24T12:33:43;99440.75;;;11.60;80.57
59825;BME280;45703;50.898;6.054;2023-04-24T12:36:12;99445.22;;;11.76;79.42
59825;BME280;45703;50.898;6.054;2023-04-24T12:38:38;99453.66;;;11.85;76.95
59825;BME280;45703;50.898;6.054;2023-04-24T12:41:11;99442.50;;;11.93;76.69
59825;BME280;45703;50.898;6.054;2023-04-24T12:43:37;99438.09;;;12.03;76.99
59825;BME280;45703;50.898;6.054;2023-04-24T12:46:03;99442.06;;;12.22;77.68
59825;BME280;45703;50.898;6.054;2023-04-24T12:48:30;99448.19;;;12.23;75.46
59825;BME280;45703;50.898;6.054;2023-04-24T12:50:59;99455.81;;;12.09;74.41
59825;BME280;45703;50.898;6.054;2023-04-24T12:53:27;99453.03;;;11.99;74.48
59825;BME280;45703;50.898;6.054;2023-04-24T12:55:54;99454.44;;;11.85;74.50
59825;BME280;45703;50.898;6.054;2023-04-24T12:58:20;99463.63;;;11.73;74.12
59825;BME280;45703;50.898;6.054;2023-04-24T13:00:46;99464.69;;;11.72;74.22
59825;BME280;45703;50.898;6.054;2023-04-24T13:03:12;99471.34;;;11.69;73.87
59825;BME280;45703;50.898;6.054;2023-04-24T13:05:38;99462.28;;;11.70;74.42
59825;BME280;45703;50.898;6.054;2023-04-24T13:08:03;99463.06;;;11.71;73.62
59825;BME280;45703;50.898;6.054;2023-04-24T13:10:29;99459.53;;;11.65;73.24
59825;BME280;45703;50.898;6.054;2023-04-24T13:12:55;99461.09;;;11.83;74.63
59825;BME280;45703;50.898;6.054;2023-04-24T13:15:20;99471.38;;;11.91;72.90